Главная страница
METAR-TAF:

METAR-TAF

Аэропорты :

Эстерсунд-Frösön, Швеция

широта: 63-11N, долгота: 014-30E, высота над уровнем моря: 376 м

Текущие метеонаблюдения

Эта сводка был подготовлена 19 минут назад, в 19:50 UTC
Ветер 30 Узел от западный
Температура 5°C
Влажность 70%
Давление 1001 hPa
Видимость 10 км и более
Рассеянная облачность на высоте 3200 фута

METAR: ESNZ 221950Z 28030KT 9999 BKN032 05/M00 Q1001

Время: 22:09 (20:09 UTC)

Прогноз

Эта сводка был подготовлена 2 часа и 39 минут назад, в 17:30 UTC
Прогноз действительный с 22-го 18 UTC до 22-го 22 UTC
Ветер 25 Узел от западный с порывами до 38 Узел
Видимость 10 км и более
Отдельные облака на высоте 3000 фута
Вероятность 40%
С 22-го 18 UTC до 22-го 22 UTC
Ветер 12 Узел от западный

TAF: ESNZ 221730Z 2218/2222 26025G38KT 9999 SCT030 PROB40 2218/2222 27012KT

Метеонаблюдения и прогнозы для более 4000 аэропортов (сводки METAR и TAF).

Имеющиеся станции представлены на карте желтыми и красными точками.

Чтобы увидеть название станции, наведите на нее мышь.

Затем щелкните, чтобы увидеть метеонаблюдения и метеопрогнозы.

Управление картой: чтобы увеличить масштаб, щелкните зеленые кнопки с черным крестиком; чтобы уменьшить масштаб, щелкните зеленую кнопку с тире; для просмотра соседних карт щелкайте зеленые стрелки.


METAR-TAF: